Řízení letového provozu České republiky
Letiste: LKVO Aktualizace: 23.08.2017 08:03:15  UTC
 METAR LKVO 23.08. 08:00 ...
METAR LKVO 230800Z VRB02KT 9999 FEW028 17/09 Q1021=